createdAt,value
2018-02-24T00:00:11.662Z,0
2018-02-24T00:01:25.727Z,0
2018-02-24T00:02:40.261Z,0
2018-02-24T00:03:54.547Z,0
2018-02-24T00:05:08.585Z,0
2018-02-24T00:06:22.940Z,0
2018-02-24T00:07:36.506Z,0
2018-02-24T00:08:50.303Z,0
2018-02-24T00:10:04.570Z,0
2018-02-24T00:11:18.583Z,0
2018-02-24T00:12:32.851Z,0
2018-02-24T00:13:46.625Z,0
2018-02-24T00:15:01.141Z,0
2018-02-24T00:16:15.162Z,0
2018-02-24T00:17:29.258Z,0
2018-02-24T00:18:43.262Z,0
2018-02-24T00:19:57.523Z,0
2018-02-24T00:21:11.786Z,0
2018-02-24T00:22:25.574Z,0
2018-02-24T00:23:39.577Z,0
2018-02-24T00:24:54.053Z,0
2018-02-24T00:26:08.311Z,0
2018-02-24T00:27:22.826Z,0
2018-02-24T00:28:36.620Z,0
2018-02-24T00:29:51.080Z,0
2018-02-24T00:31:05.440Z,0
2018-02-24T00:32:19.663Z,0
2018-02-24T00:33:33.472Z,0
2018-02-24T00:34:47.729Z,0
2018-02-24T00:36:01.508Z,0
2018-02-24T00:37:15.543Z,0
2018-02-24T00:38:29.800Z,0
2018-02-24T00:39:43.309Z,0
2018-02-24T00:40:57.563Z,0
2018-02-24T00:42:11.321Z,0
2018-02-24T00:43:25.338Z,0
2018-02-24T00:44:38.868Z,0
2018-02-24T00:45:53.604Z,0
2018-02-24T00:47:07.886Z,0
2018-02-24T00:48:22.142Z,0
2018-02-24T00:49:35.905Z,0
2018-02-24T00:50:50.440Z,0
2018-02-24T00:52:04.937Z,0
2018-02-24T00:53:19.173Z,0
2018-02-24T00:54:33.192Z,0
2018-02-24T00:55:46.933Z,0
2018-02-24T00:57:01.222Z,0
2018-02-24T00:58:15.467Z,0
2018-02-24T00:59:29.490Z,0
2018-02-24T01:00:43.706Z,0
2018-02-24T01:01:57.756Z,0
2018-02-24T01:03:11.767Z,0
2018-02-24T01:04:26.399Z,0
2018-02-24T01:05:40.431Z,0
2018-02-24T01:06:53.941Z,0
2018-02-24T01:08:08.679Z,0
2018-02-24T01:09:22.455Z,0
2018-02-24T01:10:50.851Z,0
2018-02-24T01:12:05.062Z,0
2018-02-24T01:13:19.285Z,0
2018-02-24T01:14:33.545Z,0
2018-02-24T01:15:47.825Z,0
2018-02-24T01:17:01.356Z,0
2018-02-24T01:18:15.428Z,0
2018-02-24T01:19:29.913Z,0
2018-02-24T01:20:43.908Z,0
2018-02-24T01:21:58.660Z,0
2018-02-24T01:23:12.664Z,0
2018-02-24T01:24:26.926Z,0
2018-02-24T01:25:41.209Z,0
2018-02-24T01:26:55.429Z,0
2018-02-24T01:28:09.394Z,0
2018-02-24T01:29:23.926Z,0
2018-02-24T01:30:38.161Z,0
2018-02-24T01:31:52.402Z,0
2018-02-24T01:33:06.627Z,0
2018-02-24T01:34:21.186Z,0
2018-02-24T01:35:35.901Z,0
2018-02-24T01:36:50.763Z,0
2018-02-24T01:38:04.780Z,0
2018-02-24T01:39:19.497Z,0
2018-02-24T01:40:33.748Z,0
2018-02-24T01:41:47.994Z,0
2018-02-24T01:43:02.338Z,0
2018-02-24T01:44:16.301Z,0
2018-02-24T01:45:30.530Z,0
2018-02-24T01:46:45.243Z,0
2018-02-24T01:47:59.230Z,0
2018-02-24T01:49:12.969Z,0
2018-02-24T01:50:27.450Z,0
2018-02-24T01:51:41.423Z,0
2018-02-24T01:52:55.160Z,0
2018-02-24T01:54:08.654Z,0
2018-02-24T01:55:22.402Z,0
2018-02-24T01:56:36.907Z,0
2018-02-24T01:57:50.901Z,0
2018-02-24T01:59:05.384Z,0
2018-02-24T02:00:34.330Z,0
2018-02-24T02:01:48.311Z,0
2018-02-24T02:03:02.175Z,0
2018-02-24T02:04:16.874Z,0
2018-02-24T02:05:30.917Z,0
2018-02-24T02:06:45.117Z,0
2018-02-24T02:07:59.628Z,0
2018-02-24T02:09:13.972Z,0
2018-02-24T02:10:28.438Z,0
2018-02-24T02:11:42.911Z,0
2018-02-24T02:12:57.130Z,0
2018-02-24T02:14:11.355Z,0
2018-02-24T02:15:25.577Z,0
2018-02-24T02:16:39.305Z,0
2018-02-24T02:17:53.528Z,0
2018-02-24T02:19:07.522Z,0
2018-02-24T02:20:21.269Z,0
2018-02-24T02:21:34.777Z,0
2018-02-24T02:22:49.020Z,0
2018-02-24T02:24:03.244Z,0
2018-02-24T02:25:17.457Z,0
2018-02-24T02:26:31.206Z,0
2018-02-24T02:27:45.432Z,0
2018-02-24T02:28:59.166Z,0
2018-02-24T02:30:13.432Z,0
2018-02-24T02:31:28.142Z,0
2018-02-24T02:32:42.142Z,0
2018-02-24T02:33:56.635Z,0
2018-02-24T02:35:09.928Z,0
2018-02-24T02:36:23.965Z,0
2018-02-24T02:37:38.438Z,0
2018-02-24T02:38:52.914Z,0
2018-02-24T02:40:07.422Z,0
2018-02-24T02:41:21.188Z,0
2018-02-24T02:42:35.538Z,0
2018-02-24T02:43:49.776Z,0
2018-02-24T02:45:03.786Z,0
2018-02-24T02:46:18.021Z,0
2018-02-24T02:47:32.265Z,0
2018-02-24T02:48:47.103Z,0
2018-02-24T02:50:01.575Z,0
2018-02-24T02:51:16.052Z,0
2018-02-24T02:52:30.321Z,0
2018-02-24T02:53:44.810Z,0
2018-02-24T02:54:58.837Z,0
2018-02-24T02:56:12.844Z,0
2018-02-24T02:57:27.326Z,0
2018-02-24T02:58:41.818Z,0
2018-02-24T02:59:55.591Z,0
2018-02-24T03:01:09.376Z,0
2018-02-24T03:02:23.599Z,0
2018-02-24T03:03:37.582Z,0
2018-02-24T03:04:51.824Z,0
2018-02-24T03:06:05.554Z,0
2018-02-24T03:07:19.585Z,0
2018-02-24T03:08:33.837Z,0
2018-02-24T03:09:48.073Z,0
2018-02-24T03:11:02.794Z,0
2018-02-24T03:12:17.032Z,0
2018-02-24T03:13:31.253Z,0
2018-02-24T03:14:45.228Z,0
2018-02-24T03:15:59.602Z,0
2018-02-24T03:17:13.151Z,0
2018-02-24T03:18:27.426Z,0
2018-02-24T03:19:42.159Z,0
2018-02-24T03:20:55.888Z,0
2018-02-24T03:22:09.626Z,0
2018-02-24T03:23:23.408Z,0
2018-02-24T03:24:37.406Z,0
2018-02-24T03:25:51.136Z,0
2018-02-24T03:27:05.357Z,0
2018-02-24T03:28:19.834Z,0
2018-02-24T03:29:34.049Z,0
2018-02-24T03:30:48.279Z,0
2018-02-24T03:32:03.019Z,0
2018-02-24T03:33:16.752Z,0
2018-02-24T03:34:30.980Z,0
2018-02-24T03:35:44.960Z,0
2018-02-24T03:36:59.181Z,0
2018-02-24T03:38:13.125Z,0
2018-02-24T03:39:26.878Z,0
2018-02-24T03:40:40.840Z,0
2018-02-24T03:41:55.045Z,0
2018-02-24T03:43:09.045Z,0
2018-02-24T03:44:23.305Z,0
2018-02-24T03:45:37.509Z,0
2018-02-24T03:46:51.487Z,0
2018-02-24T03:48:05.722Z,0
2018-02-24T03:49:19.825Z,0
2018-02-24T03:50:34.033Z,0
2018-02-24T03:51:48.020Z,0
2018-02-24T03:53:02.241Z,0
2018-02-24T03:54:16.217Z,0
2018-02-24T03:55:30.215Z,0
2018-02-24T03:56:44.444Z,0
2018-02-24T03:57:58.406Z,0
2018-02-24T03:59:12.655Z,0
2018-02-24T04:00:26.902Z,0
2018-02-24T04:01:41.085Z,0
2018-02-24T04:02:55.041Z,0
2018-02-24T04:04:08.778Z,0
2018-02-24T04:05:23.005Z,0
2018-02-24T04:06:37.305Z,0
2018-02-24T04:07:51.065Z,0
2018-02-24T04:09:04.789Z,0
2018-02-24T04:10:19.027Z,0
2018-02-24T04:11:33.745Z,0
2018-02-24T04:12:47.729Z,0
2018-02-24T04:14:01.968Z,0
2018-02-24T04:15:16.441Z,0
2018-02-24T04:16:30.711Z,0
2018-02-24T04:17:45.089Z,0
2018-02-24T04:18:58.856Z,0
2018-02-24T04:20:12.835Z,0
2018-02-24T04:21:26.869Z,0
2018-02-24T04:22:52.594Z,0
2018-02-24T04:24:06.889Z,0
2018-02-24T04:25:21.120Z,0
2018-02-24T04:26:35.823Z,0
2018-02-24T04:27:50.317Z,0
2018-02-24T04:29:04.320Z,0
2018-02-24T04:30:18.036Z,0
2018-02-24T04:31:31.071Z,0
2018-02-24T04:32:45.305Z,0
2018-02-24T04:33:59.533Z,0
2018-02-24T04:35:14.004Z,0
2018-02-24T04:36:28.229Z,0
2018-02-24T04:37:42.452Z,0
2018-02-24T04:38:56.661Z,0
2018-02-24T04:40:10.672Z,0
2018-02-24T04:41:24.396Z,0
2018-02-24T04:42:38.387Z,0
2018-02-24T04:43:52.354Z,0
2018-02-24T04:45:06.348Z,0
2018-02-24T04:46:20.085Z,0
2018-02-24T04:47:34.309Z,0
2018-02-24T04:48:48.548Z,0
2018-02-24T04:50:02.547Z,0
2018-02-24T04:51:16.782Z,0
2018-02-24T04:52:31.045Z,0
2018-02-24T04:53:45.270Z,0
2018-02-24T04:54:59.304Z,0
2018-02-24T04:56:13.390Z,0
2018-02-24T04:57:27.853Z,0
2018-02-24T04:58:41.836Z,0
2018-02-24T04:59:55.851Z,0
2018-02-24T05:01:09.337Z,0
2018-02-24T05:02:23.087Z,0
2018-02-24T05:03:37.553Z,0
2018-02-24T05:04:51.304Z,0
2018-02-24T05:06:05.539Z,0
2018-02-24T05:07:19.527Z,0
2018-02-24T05:08:33.530Z,0
2018-02-24T05:09:47.297Z,0
2018-02-24T05:11:01.785Z,0
2018-02-24T05:12:16.502Z,0
2018-02-24T05:13:30.463Z,0
2018-02-24T05:14:44.436Z,0
2018-02-24T05:15:58.176Z,0
2018-02-24T05:17:12.187Z,0
2018-02-24T05:18:26.932Z,0
2018-02-24T05:19:41.181Z,0
2018-02-24T05:20:55.670Z,0
2018-02-24T05:22:09.633Z,0
2018-02-24T05:23:23.828Z,0
2018-02-24T05:24:38.039Z,0
2018-02-24T05:25:52.270Z,0
2018-02-24T05:27:06.732Z,0
2018-02-24T05:28:21.234Z,0
2018-02-24T05:29:35.558Z,0
2018-02-24T05:30:49.051Z,0
2018-02-24T05:32:03.054Z,0
2018-02-24T05:33:17.515Z,0
2018-02-24T05:34:32.248Z,0
2018-02-24T05:35:46.556Z,0
2018-02-24T05:37:00.651Z,0
2018-02-24T05:38:14.710Z,0
2018-02-24T05:39:29.197Z,0
2018-02-24T05:40:42.467Z,0
2018-02-24T05:41:56.728Z,0
2018-02-24T05:43:10.735Z,0
2018-02-24T05:44:24.752Z,0
2018-02-24T05:45:38.785Z,0
2018-02-24T05:46:52.784Z,0
2018-02-24T05:48:06.782Z,4
2018-02-24T05:49:21.014Z,0
2018-02-24T05:50:35.028Z,4
2018-02-24T05:51:49.770Z,0
2018-02-24T05:53:04.290Z,4
2018-02-24T05:54:18.057Z,4
2018-02-24T05:55:32.080Z,8
2018-02-24T05:56:46.085Z,8
2018-02-24T05:58:00.328Z,8
2018-02-24T05:59:14.574Z,8
2018-02-24T06:00:28.803Z,12
2018-02-24T06:01:43.308Z,12
2018-02-24T06:02:57.679Z,16
2018-02-24T06:04:11.909Z,20
2018-02-24T06:05:26.599Z,24
2018-02-24T06:06:40.850Z,28
2018-02-24T06:07:55.311Z,36
2018-02-24T06:09:09.060Z,40
2018-02-24T06:10:23.575Z,44
2018-02-24T06:11:36.837Z,56
2018-02-24T06:12:50.329Z,64
2018-02-24T06:14:04.286Z,72
2018-02-24T06:15:18.023Z,80
2018-02-24T06:16:32.273Z,92
2018-02-24T06:17:46.751Z,104
2018-02-24T06:19:00.723Z,116
2018-02-24T06:20:14.716Z,132
2018-02-24T06:21:29.192Z,144
2018-02-24T06:22:42.923Z,164
2018-02-24T06:23:57.660Z,176
2018-02-24T06:25:11.922Z,196
2018-02-24T06:26:26.160Z,212
2018-02-24T06:27:40.192Z,236
2018-02-24T06:28:54.424Z,252
2018-02-24T06:30:07.916Z,276
2018-02-24T06:31:22.192Z,292
2018-02-24T06:32:36.206Z,316
2018-02-24T06:33:49.980Z,340
2018-02-24T06:35:03.745Z,364
2018-02-24T06:36:17.603Z,388
2018-02-24T06:37:32.108Z,416
2018-02-24T06:38:46.342Z,440
2018-02-24T06:39:59.825Z,464
2018-02-24T06:41:14.317Z,492
2018-02-24T06:42:28.303Z,516
2018-02-24T06:43:42.063Z,540
2018-02-24T06:44:56.091Z,564
2018-02-24T06:46:09.850Z,588
2018-02-24T06:47:24.321Z,616
2018-02-24T06:48:38.799Z,640
2018-02-24T06:49:52.812Z,664
2018-02-24T06:51:07.040Z,692
2018-02-24T06:52:21.507Z,716
2018-02-24T06:53:35.501Z,736
2018-02-24T06:54:50.128Z,760
2018-02-24T06:56:04.363Z,788
2018-02-24T06:57:18.863Z,808
2018-02-24T06:58:33.112Z,836
2018-02-24T06:59:47.331Z,856
2018-02-24T07:01:01.551Z,876
2018-02-24T07:02:15.565Z,900
2018-02-24T07:03:29.545Z,920
2018-02-24T07:04:43.796Z,936
2018-02-24T07:05:57.773Z,960
2018-02-24T07:07:12.279Z,980
2018-02-24T07:08:26.516Z,996
2018-02-24T07:09:40.862Z,1016
2018-02-24T07:10:54.608Z,1032
2018-02-24T07:12:08.632Z,1048
2018-02-24T07:13:22.411Z,1072
2018-02-24T07:14:36.873Z,1088
2018-02-24T07:15:51.078Z,1108
2018-02-24T07:17:05.083Z,1120
2018-02-24T07:18:19.572Z,1140
2018-02-24T07:19:32.888Z,1156
2018-02-24T07:20:46.895Z,1172
2018-02-24T07:22:00.902Z,1188
2018-02-24T07:23:15.134Z,1200
2018-02-24T07:24:29.144Z,1220
2018-02-24T07:25:43.182Z,1236
2018-02-24T07:26:56.945Z,1248
2018-02-24T07:28:11.243Z,1264
2018-02-24T07:29:25.282Z,1276
2018-02-24T07:30:39.039Z,1288
2018-02-24T07:31:53.268Z,1296
2018-02-24T07:33:07.263Z,1308
2018-02-24T07:34:21.502Z,1316
2018-02-24T07:35:35.258Z,1332
2018-02-24T07:36:49.988Z,1340
2018-02-24T07:38:04.455Z,1352
2018-02-24T07:39:18.723Z,1364
2018-02-24T07:40:33.240Z,1380
2018-02-24T07:41:47.512Z,1388
2018-02-24T07:43:01.869Z,1396
2018-02-24T07:44:15.909Z,1408
2018-02-24T07:45:29.866Z,1420
2018-02-24T07:46:43.683Z,1436
2018-02-24T07:47:58.217Z,1440
2018-02-24T07:49:12.570Z,1456
2018-02-24T07:50:26.327Z,1460
2018-02-24T07:51:40.361Z,1464
2018-02-24T07:52:54.394Z,1480
2018-02-24T07:54:08.496Z,1488
2018-02-24T07:55:22.546Z,1496
2018-02-24T07:56:36.831Z,1504
2018-02-24T07:57:51.332Z,1512
2018-02-24T07:59:05.330Z,1516
2018-02-24T08:00:19.598Z,1532
2018-02-24T08:01:33.418Z,1536
2018-02-24T08:02:47.398Z,1536
2018-02-24T08:04:01.695Z,1544
2018-02-24T08:05:15.902Z,1552
2018-02-24T08:06:30.397Z,1560
2018-02-24T08:07:44.172Z,1564
2018-02-24T08:08:58.919Z,1572
2018-02-24T08:10:12.931Z,1580
2018-02-24T08:11:26.944Z,1588
2018-02-24T08:12:41.457Z,1596
2018-02-24T08:13:55.721Z,1600
2018-02-24T08:15:09.547Z,1604
2018-02-24T08:16:23.906Z,1612
2018-02-24T08:17:37.940Z,1612
2018-02-24T08:18:52.215Z,1628
2018-02-24T08:20:06.255Z,1636
2018-02-24T08:21:20.592Z,1640
2018-02-24T08:22:34.863Z,1644
2018-02-24T08:23:48.897Z,1644
2018-02-24T08:25:02.667Z,1644
2018-02-24T08:26:16.918Z,1640
2018-02-24T08:27:30.928Z,1644
2018-02-24T08:28:45.432Z,1660
2018-02-24T08:29:59.939Z,1672
2018-02-24T08:31:14.157Z,1676
2018-02-24T08:32:28.666Z,1684
2018-02-24T08:33:42.707Z,1692
2018-02-24T08:34:57.210Z,1688
2018-02-24T08:36:11.245Z,1696
2018-02-24T08:37:24.994Z,1700
2018-02-24T08:38:38.474Z,1712
2018-02-24T08:39:52.228Z,1712
2018-02-24T08:41:06.249Z,1708
2018-02-24T08:42:19.762Z,1708
2018-02-24T08:43:33.506Z,1720
2018-02-24T08:44:47.234Z,1728
2018-02-24T08:46:01.310Z,1720
2018-02-24T08:47:15.319Z,1724
2018-02-24T08:48:29.124Z,1740
2018-02-24T08:49:42.999Z,1752
2018-02-24T08:50:56.765Z,1764
2018-02-24T08:52:10.772Z,1768
2018-02-24T08:53:25.283Z,1768
2018-02-24T08:54:39.550Z,1760
2018-02-24T08:55:53.571Z,1772
2018-02-24T08:57:07.603Z,1776
2018-02-24T08:58:21.555Z,1780
2018-02-24T08:59:35.300Z,1780
2018-02-24T09:00:49.531Z,1780
2018-02-24T09:02:04.012Z,1784
2018-02-24T09:03:18.799Z,1788
2018-02-24T09:04:32.786Z,1784
2018-02-24T09:05:47.053Z,1792
2018-02-24T09:07:01.328Z,1792
2018-02-24T09:08:15.349Z,1796
2018-02-24T09:09:29.893Z,1804
2018-02-24T09:10:43.674Z,1800
2018-02-24T09:11:57.443Z,1796
2018-02-24T09:13:11.808Z,1800
2018-02-24T09:14:25.839Z,1804
2018-02-24T09:15:39.586Z,1812
2018-02-24T09:16:53.636Z,1808
2018-02-24T09:18:08.132Z,1808
2018-02-24T09:19:22.654Z,1808
2018-02-24T09:20:36.914Z,1804
2018-02-24T09:21:50.946Z,1800
2018-02-24T09:23:04.845Z,1812
2018-02-24T09:24:19.622Z,1808
2018-02-24T09:25:33.379Z,1820
2018-02-24T09:26:47.463Z,1816
2018-02-24T09:28:01.423Z,1820
2018-02-24T09:29:16.237Z,1816
2018-02-24T09:30:29.773Z,1816
2018-02-24T09:31:43.822Z,1816
2018-02-24T09:32:57.832Z,1820
2018-02-24T09:34:12.127Z,1816
2018-02-24T09:35:25.631Z,1820
2018-02-24T09:36:39.356Z,1828
2018-02-24T09:37:53.130Z,1828
2018-02-24T09:39:07.660Z,1828
2018-02-24T09:40:21.910Z,1820
2018-02-24T09:41:36.622Z,1816
2018-02-24T09:42:50.688Z,1820
2018-02-24T09:44:05.334Z,1824
2018-02-24T09:45:19.484Z,1828
2018-02-24T09:47:48.243Z,1832
2018-02-24T09:49:02.494Z,1824
2018-02-24T09:50:16.750Z,1836
2018-02-24T09:51:31.250Z,1836
2018-02-24T09:52:45.517Z,1832
2018-02-24T09:53:59.002Z,1832
2018-02-24T09:55:12.996Z,1824
2018-02-24T09:56:26.883Z,1824
2018-02-24T09:57:40.880Z,1828
2018-02-24T09:58:54.668Z,1828
2018-02-24T10:00:08.924Z,1820
2018-02-24T10:01:23.277Z,1824
2018-02-24T10:02:37.297Z,1820
2018-02-24T10:03:50.863Z,1820
2018-02-24T10:05:04.706Z,1820
2018-02-24T10:06:18.779Z,1816
2018-02-24T10:07:32.757Z,1824
2018-02-24T10:08:47.207Z,1820
2018-02-24T10:10:01.739Z,1816
2018-02-24T10:11:16.265Z,1812
2018-02-24T10:12:30.293Z,1816
2018-02-24T10:13:44.119Z,1804
2018-02-24T10:14:58.442Z,1808
2018-02-24T10:16:12.827Z,1804
2018-02-24T10:17:27.373Z,1796
2018-02-24T10:18:41.659Z,1792
2018-02-24T10:19:56.135Z,1788
2018-02-24T10:21:10.369Z,1784
2018-02-24T10:22:24.614Z,1784
2018-02-24T10:23:38.830Z,1788
2018-02-24T10:24:53.574Z,1780
2018-02-24T10:26:08.359Z,1776
2018-02-24T10:27:22.897Z,1772
2018-02-24T10:28:36.984Z,1776
2018-02-24T10:29:51.802Z,1776
2018-02-24T10:31:06.105Z,1776
2018-02-24T10:32:19.598Z,1776
2018-02-24T10:33:34.340Z,1780
2018-02-24T10:34:48.643Z,1784
2018-02-24T10:36:02.435Z,1788
2018-02-24T10:37:16.968Z,1784
2018-02-24T10:38:31.248Z,1780
2018-02-24T10:39:45.295Z,1780
2018-02-24T10:40:59.586Z,1776
2018-02-24T10:42:13.976Z,1784
2018-02-24T10:43:28.020Z,1784
2018-02-24T10:44:42.578Z,1772
2018-02-24T10:45:57.099Z,1776
2018-02-24T10:47:11.388Z,1776
2018-02-24T10:48:25.704Z,1776
2018-02-24T10:49:40.017Z,1780
2018-02-24T10:50:54.228Z,1780
2018-02-24T10:52:08.273Z,1780
2018-02-24T10:53:22.272Z,1784
2018-02-24T10:54:36.749Z,1788
2018-02-24T10:55:50.538Z,1784
2018-02-24T10:57:05.278Z,1792
2018-02-24T10:58:19.266Z,1788
2018-02-24T10:59:33.504Z,1784
2018-02-24T11:00:48.480Z,1776
2018-02-24T11:02:02.295Z,1776
2018-02-24T11:03:16.682Z,1780
2018-02-24T11:04:30.938Z,1780
2018-02-24T11:05:44.688Z,1772
2018-02-24T11:06:59.567Z,1772
2018-02-24T11:08:14.308Z,1772
2018-02-24T11:09:28.610Z,1768
2018-02-24T11:10:42.871Z,1768
2018-02-24T11:11:56.891Z,1764
2018-02-24T11:13:11.033Z,1768
2018-02-24T11:14:25.312Z,1756
2018-02-24T11:15:39.318Z,1752
2018-02-24T11:16:53.105Z,1752
2018-02-24T11:18:07.878Z,1748
2018-02-24T11:19:22.185Z,1732
2018-02-24T11:20:36.192Z,1740
2018-02-24T11:21:49.960Z,1736
2018-02-24T11:23:04.368Z,1728
2018-02-24T11:24:18.651Z,1724
2018-02-24T11:25:32.668Z,1720
2018-02-24T11:26:46.937Z,1720
2018-02-24T11:28:01.207Z,1712
2018-02-24T11:29:16.046Z,1712
2018-02-24T11:30:30.574Z,1708
2018-02-24T11:31:44.640Z,1700
2018-02-24T11:32:58.662Z,1696
2018-02-24T11:34:12.443Z,1696
2018-02-24T11:35:26.163Z,1688
2018-02-24T11:36:40.784Z,1684
2018-02-24T11:37:55.337Z,1680
2018-02-24T11:39:09.592Z,1672
2018-02-24T11:40:23.630Z,1672
2018-02-24T11:41:37.915Z,1668
2018-02-24T11:42:52.152Z,1660
2018-02-24T11:44:05.916Z,1660
2018-02-24T11:45:19.951Z,1652
2018-02-24T11:46:33.809Z,1652
2018-02-24T11:47:47.614Z,1644
2018-02-24T11:49:01.898Z,1640
2018-02-24T11:50:16.213Z,1632
2018-02-24T11:51:30.480Z,1628
2018-02-24T11:52:44.774Z,1632
2018-02-24T11:53:58.300Z,1632
2018-02-24T11:55:12.069Z,1624
2018-02-24T11:56:25.841Z,1628
2018-02-24T11:57:39.842Z,1620
2018-02-24T11:58:53.909Z,1612
2018-02-24T12:00:07.974Z,1604
2018-02-24T12:01:21.968Z,1604
2018-02-24T12:02:36.420Z,1608
2018-02-24T12:03:50.925Z,1604
2018-02-24T12:05:04.992Z,1604
2018-02-24T12:06:19.746Z,1604
2018-02-24T12:07:33.803Z,1608
2018-02-24T12:08:48.346Z,1608
2018-02-24T12:10:02.944Z,1612
2018-02-24T12:11:17.055Z,1600
2018-02-24T12:12:31.584Z,1596
2018-02-24T12:13:45.907Z,1596
2018-02-24T12:14:59.804Z,1600
2018-02-24T12:16:13.883Z,1600
2018-02-24T12:17:27.928Z,1600
2018-02-24T12:18:42.200Z,1600
2018-02-24T12:19:56.503Z,1600
2018-02-24T12:21:10.764Z,1600
2018-02-24T12:22:25.322Z,1600
2018-02-24T12:23:39.861Z,1596
2018-02-24T12:24:54.380Z,1596
2018-02-24T12:26:08.164Z,1600
2018-02-24T12:27:22.423Z,1604
2018-02-24T12:28:36.713Z,1576
2018-02-24T12:29:49.987Z,1608
2018-02-24T12:31:04.526Z,1616
2018-02-24T12:32:18.787Z,1620
2018-02-24T12:33:32.812Z,1624
2018-02-24T12:34:46.826Z,1636
2018-02-24T12:36:00.876Z,1636
2018-02-24T12:37:14.906Z,1640
2018-02-24T12:38:28.736Z,1640
2018-02-24T12:39:42.785Z,1644
2018-02-24T12:40:57.064Z,1644
2018-02-24T12:42:11.608Z,1644
2018-02-24T12:43:25.516Z,1648
2018-02-24T12:44:39.311Z,1652
2018-02-24T12:45:53.834Z,1656
2018-02-24T12:47:08.316Z,1660
2018-02-24T12:48:22.148Z,1660
2018-02-24T12:49:36.172Z,1668
2018-02-24T12:50:50.535Z,1668
2018-02-24T12:52:04.356Z,1672
2018-02-24T12:53:18.660Z,1680
2018-02-24T12:54:33.229Z,1680
2018-02-24T12:55:47.529Z,1676
2018-02-24T12:57:01.844Z,1680
2018-02-24T12:58:16.183Z,1688
2018-02-24T12:59:30.221Z,1688
2018-02-24T13:00:44.861Z,1692
2018-02-24T13:01:58.939Z,1700
2018-02-24T13:03:13.029Z,1700
2018-02-24T13:04:27.310Z,1704
2018-02-24T13:05:41.607Z,1708
2018-02-24T13:06:55.899Z,1712
2018-02-24T13:08:10.698Z,1716
2018-02-24T13:09:24.498Z,1720
2018-02-24T13:10:38.595Z,1732
2018-02-24T13:11:52.673Z,1736
2018-02-24T13:13:06.980Z,1740
2018-02-24T13:14:21.245Z,1748
2018-02-24T13:15:35.579Z,1760
2018-02-24T13:16:50.206Z,1764
2018-02-24T13:18:04.015Z,1772
2018-02-24T13:19:18.363Z,1780
2018-02-24T13:20:32.223Z,1776
2018-02-24T13:21:46.816Z,1776
2018-02-24T13:23:01.104Z,1772
2018-02-24T13:24:15.157Z,1772
2018-02-24T13:25:29.307Z,1760
2018-02-24T13:26:43.495Z,1756
2018-02-24T13:27:57.580Z,1744
2018-02-24T13:29:12.204Z,1740
2018-02-24T13:30:26.031Z,1736
2018-02-24T13:31:40.625Z,1736
2018-02-24T13:32:55.418Z,1724
2018-02-24T13:34:09.773Z,1716
2018-02-24T13:35:24.091Z,1712
2018-02-24T13:36:38.899Z,1708
2018-02-24T13:37:53.294Z,1712
2018-02-24T13:39:08.080Z,1704
2018-02-24T13:40:22.624Z,1696
2018-02-24T13:41:37.375Z,1680
2018-02-24T13:42:51.671Z,1672
2018-02-24T13:44:06.211Z,1668
2018-02-24T13:45:20.495Z,1664
2018-02-24T13:46:34.544Z,1660
2018-02-24T13:47:48.591Z,1656
2018-02-24T13:49:02.408Z,1648
2018-02-24T13:50:16.309Z,1648
2018-02-24T13:51:29.881Z,1656
2018-02-24T13:52:43.712Z,1660
2018-02-24T13:53:58.296Z,1660
2018-02-24T13:55:12.684Z,1652
2018-02-24T13:56:27.256Z,1652
2018-02-24T13:57:41.305Z,1648
2018-02-24T13:58:55.591Z,1644
2018-02-24T14:00:09.879Z,1644
2018-02-24T14:01:24.200Z,1640
2018-02-24T14:02:38.537Z,1636
2018-02-24T14:03:52.899Z,1632
2018-02-24T14:05:06.768Z,1628
2018-02-24T14:06:20.598Z,1628
2018-02-24T14:07:34.939Z,1624
2018-02-24T14:08:49.516Z,1628
2018-02-24T14:10:03.843Z,1628
2018-02-24T14:11:18.118Z,1620
2018-02-24T14:12:32.364Z,1612
2018-02-24T14:13:47.392Z,1612
2018-02-24T14:15:02.039Z,1608
2018-02-24T14:16:16.142Z,1608
2018-02-24T14:17:29.749Z,1608
2018-02-24T14:18:44.476Z,1608
2018-02-24T14:19:58.622Z,1608
2018-02-24T14:21:12.983Z,1604
2018-02-24T14:22:27.520Z,1600
2018-02-24T14:23:42.089Z,1600
2018-02-24T14:24:56.854Z,1596
2018-02-24T14:26:11.123Z,1584
2018-02-24T14:27:24.915Z,1580
2018-02-24T14:28:38.992Z,1576
2018-02-24T14:29:54.146Z,1576
2018-02-24T14:31:08.943Z,1568
2018-02-24T14:32:23.519Z,1568
2018-02-24T14:33:38.289Z,1568
2018-02-24T14:34:52.823Z,1560
2018-02-24T14:36:07.368Z,1560
2018-02-24T14:37:21.865Z,1560
2018-02-24T14:38:36.232Z,1556
2018-02-24T14:39:50.295Z,1552
2018-02-24T14:41:05.207Z,1544
2018-02-24T14:42:20.017Z,1544
2018-02-24T14:43:33.782Z,1540
2018-02-24T14:44:47.841Z,1540
2018-02-24T14:46:02.101Z,1540
2018-02-24T14:47:16.599Z,1536
2018-02-24T14:48:31.152Z,1524
2018-02-24T14:49:44.707Z,1520
2018-02-24T14:50:59.320Z,1528
2018-02-24T14:52:14.073Z,1520
2018-02-24T14:53:28.338Z,1516
2018-02-24T14:54:42.371Z,1508
2018-02-24T14:55:56.866Z,1504
2018-02-24T14:57:11.535Z,1492
2018-02-24T14:58:25.333Z,1492
2018-02-24T14:59:39.590Z,1488
2018-02-24T15:00:53.119Z,1484
2018-02-24T15:02:07.156Z,1480
2018-02-24T15:03:21.153Z,1472
2018-02-24T15:04:35.202Z,1460
2018-02-24T15:05:48.961Z,1456
2018-02-24T15:07:03.544Z,1444
2018-02-24T15:08:18.117Z,1436
2018-02-24T15:09:32.716Z,1424
2018-02-24T15:10:47.371Z,1408
2018-02-24T15:12:01.685Z,1396
2018-02-24T15:13:16.038Z,1384
2018-02-24T15:14:29.843Z,1376
2018-02-24T15:15:44.224Z,1364
2018-02-24T15:16:58.278Z,1368
2018-02-24T15:18:12.401Z,1360
2018-02-24T15:19:26.712Z,1352
2018-02-24T15:20:40.765Z,1340
2018-02-24T15:21:54.575Z,1328
2018-02-24T15:23:09.110Z,1320
2018-02-24T15:24:23.627Z,1308
2018-02-24T15:25:37.932Z,1292
2018-02-24T15:26:52.224Z,1284
2018-02-24T15:28:06.488Z,1272
2018-02-24T15:29:21.232Z,1256
2018-02-24T15:30:35.617Z,1236
2018-02-24T15:31:49.670Z,1220
2018-02-24T15:33:04.432Z,1212
2018-02-24T15:34:18.955Z,1204
2018-02-24T15:35:33.246Z,1192
2018-02-24T15:36:46.998Z,1176
2018-02-24T15:38:01.478Z,1156
2018-02-24T15:39:16.063Z,1144
2018-02-24T15:40:30.584Z,1136
2018-02-24T15:41:45.064Z,1120
2018-02-24T15:42:59.584Z,1104
2018-02-24T15:44:14.360Z,1092
2018-02-24T15:45:27.900Z,1080
2018-02-24T15:46:42.189Z,1068
2018-02-24T15:47:56.183Z,1048
2018-02-24T15:49:09.936Z,1036
2018-02-24T15:50:23.935Z,1024
2018-02-24T15:51:38.167Z,1020
2018-02-24T15:52:52.716Z,1016
2018-02-24T15:54:06.716Z,1008
2018-02-24T15:55:20.747Z,1000
2018-02-24T15:56:35.000Z,984
2018-02-24T15:57:49.571Z,964
2018-02-24T15:59:03.808Z,944
2018-02-24T16:00:18.312Z,920
2018-02-24T16:01:32.604Z,900
2018-02-24T16:02:47.187Z,880
2018-02-24T16:04:01.527Z,852
2018-02-24T16:05:16.325Z,836
2018-02-24T16:06:30.658Z,816
2018-02-24T16:07:44.955Z,808
2018-02-24T16:08:59.267Z,792
2018-02-24T16:10:13.779Z,784
2018-02-24T16:11:27.826Z,764
2018-02-24T16:12:42.615Z,744
2018-02-24T16:13:56.620Z,712
2018-02-24T16:15:11.105Z,692
2018-02-24T16:16:25.511Z,680
2018-02-24T16:17:40.291Z,668
2018-02-24T16:18:54.335Z,656
2018-02-24T16:20:09.466Z,636
2018-02-24T16:21:24.214Z,620
2018-02-24T16:22:38.479Z,596
2018-02-24T16:23:52.697Z,576
2018-02-24T16:25:06.464Z,556
2018-02-24T16:26:20.964Z,536
2018-02-24T16:27:35.482Z,520
2018-02-24T16:28:49.728Z,500
2018-02-24T16:30:04.223Z,476
2018-02-24T16:31:18.980Z,452
2018-02-24T16:32:33.237Z,424
2018-02-24T16:33:47.746Z,404
2018-02-24T16:35:02.532Z,384
2018-02-24T16:36:16.827Z,368
2018-02-24T16:37:31.237Z,344
2018-02-24T16:38:45.664Z,324
2018-02-24T16:39:59.703Z,300
2018-02-24T16:41:13.976Z,280
2018-02-24T16:42:28.236Z,264
2018-02-24T16:43:42.535Z,244
2018-02-24T16:44:56.615Z,224
2018-02-24T16:46:10.877Z,208
2018-02-24T16:47:24.928Z,192
2018-02-24T16:48:38.946Z,176
2018-02-24T16:49:53.496Z,160
2018-02-24T16:51:08.240Z,148
2018-02-24T16:52:22.031Z,132
2018-02-24T16:53:36.553Z,124
2018-02-24T16:54:50.822Z,108
2018-02-24T16:56:04.860Z,96
2018-02-24T16:57:19.379Z,88
2018-02-24T16:58:33.186Z,80
2018-02-24T16:59:47.703Z,68
2018-02-24T17:01:02.211Z,64
2018-02-24T17:02:16.272Z,56
2018-02-24T17:03:30.552Z,48
2018-02-24T17:04:44.629Z,40
2018-02-24T17:05:58.927Z,36
2018-02-24T17:07:13.225Z,32
2018-02-24T17:08:27.290Z,28
2018-02-24T17:09:41.792Z,20
2018-02-24T17:10:56.291Z,16